Flight Track Log - Related Links

Times and Time Zones

All times are in EDT time to prevent confusion due to time zone crossing. See the VIR76 flight status page for this flight to view local times or setup timezone preferences in your user account.

Time Position Orientation Groundspeed Altitude Reporting Facility
EDT Latitude Longitude Course Direction KTS MPH feet Rate Location/Type
Mon 07:06:42 PM 28.4260 -81.2960 90° East  Level FlightAware ADS-B
Mon 07:07:12 PM 28.4450 -81.2950 North 133 153 1,300 2,100 Climbing FlightAware ADS-B
Mon 07:07:42 PM 28.4640 -81.2890 16° North 152 175 2,100 1,309 Climbing FlightAware ADS-B
Mon 07:08:07 PM 28.4840 -81.2820 17° North 173 199 2,500 1,091 Climbing FlightAware ADS-B
Mon 07:08:37 PM 28.5080 -81.2740 16° North 184 212 3,100 873 Climbing FlightAware ADS-B
Mon 07:09:02 PM 28.5300 -81.2670 16° North 216 249 3,300 873 Climbing FlightAware ADS-B
Mon 07:09:32 PM 28.5580 -81.2580 16° North 235 270 3,900 1,636 Climbing FlightAware ADS-B
Mon 07:09:57 PM 28.5910 -81.2460 18° North 259 298 4,800 2,073 Climbing FlightAware ADS-B
Mon 07:10:27 PM 28.6250 -81.2330 19° North 264 304 5,800 2,160 Climbing FlightAware ADS-B
Mon 07:11:12 PM 28.6810 -81.2410 353° North 273 314 7,500 2,314 Climbing FlightAware ADS-B
Mon 07:11:37 PM 28.7110 -81.2520 342° North 270 311 8,500 2,400 Climbing FlightAware ADS-B
Mon 07:12:07 PM 28.7490 -81.2670 341° North 272 313 9,700 1,800 Climbing FlightAware ADS-B
Mon 07:12:47 PM 28.7980 -81.2840 343° North 302 348 10,600 1,125 Climbing FlightAware ADS-B
Mon 07:13:27 PM 28.8560 -81.3040 343° North 340 391 11,200 1,341 Climbing FlightAware ADS-B
Mon 07:14:12 PM 28.9230 -81.3270 343° North 351 404 12,500 1,800 Climbing FlightAware ADS-B
Mon 07:14:47 PM 28.9790 -81.3470 343° North 354 407 13,600 1,906 Climbing FlightAware ADS-B
Mon 07:15:37 PM 29.0640 -81.3760 343° North 368 423 15,200 1,860 Climbing FlightAware ADS-B
Mon 07:16:27 PM 29.1520 -81.3940 350° North 374 430 16,700 1,733 Climbing FlightAware ADS-B
Mon 07:17:07 PM 29.2220 -81.4000 356° North 385 443 17,800 776 Climbing FlightAware ADS-B
Mon 07:17:52 PM 29.2930 -81.4090 354° North 385 443 17,800  Level FlightAware ADS-B
Mon 07:18:32 PM 29.3530 -81.4160 354° North 385 443 17,800  Level FlightAware ADS-B
Mon 07:19:12 PM 29.4130 -81.4230 354° North 385 443 17,800  Level FlightAware ADS-B
Mon 07:20:02 PM 29.4880 -81.4320 354° North 385 443 17,800  Level FlightAware ADS-B
Mon 07:20:42 PM 29.5490 -81.4400 353° North 385 443 17,800 1,899 Level FlightAware ADS-B
Mon 07:25:37 PM 30.2250 -81.4980 356° North 452 520 28,400 1,982 Climbing FlightAware ADS-B
Mon 07:26:12 PM 30.2970 -81.5060 355° North 452 520 28,700 212 Climbing FlightAware ADS-B
Mon 07:27:02 PM 30.3860 -81.5150 355° North 452 520 28,700  Level FlightAware ADS-B
Mon 07:27:42 PM 30.4570 -81.5220 355° North 452 520 28,700  Level FlightAware ADS-B
Mon 07:28:22 PM 30.5270 -81.5290 355° North 452 520 28,700  Level FlightAware ADS-B
Mon 07:29:02 PM 30.5980 -81.5360 355° North 452 520 28,700  Level FlightAware ADS-B
Mon 07:29:42 PM 30.6690 -81.5430 355° North 452 520 28,700 4,091 Level FlightAware ADS-B
Mon 07:30:08 PM 30.7931 -81.4753 355° North 441 507 33,200 3,907 Climbing Jacksonville Center
Mon 07:31:08 PM 30.9183 -81.4639 North 446 513 34,300 1,150 Climbing Jacksonville Center
Mon 07:32:08 PM 31.0392 -81.4522 North 446 513 35,500 850 Climbing Jacksonville Center
Mon 07:33:08 PM 31.1644 -81.4431 North 441 507 36,000 500 Climbing Jacksonville Center
Mon 07:34:08 PM 31.2917 -81.4289 North 448 516 36,500 156 Climbing Jacksonville Center
Mon 07:39:32 PM 31.9070 -80.9470 North 508 585 37,000 82 Climbing FlightAware ADS-B
Mon 07:40:12 PM 31.9800 -80.8810 37° Northeast 508 585 37,000  Level FlightAware ADS-B
Mon 07:40:52 PM 32.0480 -80.8190 38° Northeast 508 585 37,000  Level FlightAware ADS-B
Mon 07:41:42 PM 32.1310 -80.7440 37° Northeast 508 585 37,000  Level FlightAware ADS-B
Mon 07:42:22 PM 32.1950 -80.6870 37° Northeast 508 585 37,000  Level FlightAware ADS-B
Mon 07:44:02 PM 32.4070 -80.4830 39° Northeast 513 590 37,000  Level FlightAware ADS-B
Mon 07:45:08 PM 32.5236 -80.3722 39° Northeast 513 590 37,000  Level Jacksonville Center
Mon 07:46:08 PM 32.6342 -80.2678 38° Northeast 513 590 37,000  Level Jacksonville Center
Mon 07:47:08 PM 32.7467 -80.1583 39° Northeast 513 590 37,000  Level Jacksonville Center
Mon 07:48:08 PM 32.8569 -80.0536 39° Northeast 508 585 37,000  Level Jacksonville Center
Mon 07:49:08 PM 32.9836 -79.9333 39° Northeast 516 594 37,000  Level Jacksonville Center
Mon 07:50:08 PM 33.0939 -79.8281 39° Northeast 516 594 37,000  Level Jacksonville Center
Mon 07:55:47 PM 33.6950 -79.2450 39° Northeast 517 595 37,000  Level FlightAware ADS-B
Mon 07:56:37 PM 33.8040 -79.1380 39° Northeast 517 595 37,000  Level FlightAware ADS-B
Mon 07:57:22 PM 33.8880 -79.0550 39° Northeast 519 597 37,000  Level FlightAware ADS-B
Mon 07:58:02 PM 33.9630 -78.9810 39° Northeast 519 597 37,000  Level FlightAware ADS-B
Mon 07:58:42 PM 34.0340 -78.9100 40° Northeast 521 600 37,000  Level FlightAware ADS-B
Mon 07:59:22 PM 34.1060 -78.8390 39° Northeast 523 602 37,000  Level FlightAware ADS-B
Mon 08:00:07 PM 34.1900 -78.7550 40° Northeast 526 605 37,000  Level FlightAware ADS-B
Mon 08:00:47 PM 34.2540 -78.6900 40° Northeast 526 605 37,000  Level FlightAware ADS-B
Mon 08:01:27 PM 34.3170 -78.6260 40° Northeast 526 605 37,000  Level FlightAware ADS-B
Mon 08:02:17 PM 34.3960 -78.5460 40° Northeast 526 605 37,000  Level FlightAware ADS-B
Mon 08:02:57 PM 34.4600 -78.4810 40° Northeast 526 605 37,000  Level FlightAware ADS-B
Mon 08:03:37 PM 34.5230 -78.4160 40° Northeast 526 605 37,000  Level FlightAware ADS-B
Mon 08:04:17 PM 34.5860 -78.3520 40° Northeast 526 605 37,000  Level FlightAware ADS-B
Mon 08:04:57 PM 34.6500 -78.2870 40° Northeast 526 605 37,000  Level FlightAware ADS-B
Mon 08:05:47 PM 34.7290 -78.2060 40° Northeast 526 605 37,000  Level FlightAware ADS-B
Mon 08:06:27 PM 34.7920 -78.1420 40° Northeast 526 605 37,000  Level FlightAware ADS-B
Mon 08:07:07 PM 34.8560 -78.0770 40° Northeast 526 605 37,000  Level FlightAware ADS-B
Mon 08:07:47 PM 34.9190 -78.0120 40° Northeast 526 605 37,000  Level FlightAware ADS-B
Mon 08:08:27 PM 34.9830 -77.9470 40° Northeast 526 605 37,000  Level FlightAware ADS-B
Mon 08:09:17 PM 35.0620 -77.8660 40° Northeast 526 605 37,000  Level FlightAware ADS-B
Mon 08:11:07 PM 35.4690 -77.4700 38° Northeast 548 631 37,000  Level FlightAware ADS-B
Mon 08:11:47 PM 35.5520 -77.4000 34° Northeast 548 631 37,000  Level FlightAware ADS-B
Mon 08:12:32 PM 35.6430 -77.3200 36° Northeast 549 632 37,000  Level FlightAware ADS-B
Mon 08:13:07 PM 35.7150 -77.2570 35° Northeast 549 632 37,000  Level FlightAware ADS-B
Mon 08:14:02 PM 35.8350 -77.1770 28° Northeast 553 636 37,000  Level FlightAware ADS-B
Mon 08:14:52 PM 35.9290 -77.1100 30° Northeast 553 636 37,000  Level FlightAware ADS-B
Mon 08:15:32 PM 36.0040 -77.0560 30° Northeast 553 636 37,000  Level FlightAware ADS-B
Mon 08:16:12 PM 36.0800 -77.0020 30° Northeast 553 636 37,000  Level FlightAware ADS-B
Mon 08:16:57 PM 36.2190 -76.8880 33° Northeast 37,000  Level FlightAware ADS-B
Mon 08:19:42 PM 36.5880 -76.6090 31° Northeast 37,000  Level FlightAware ADS-B
Mon 08:20:27 PM 36.6730 -76.5430 32° Northeast 548 631 37,000  Level FlightAware ADS-B
Mon 08:21:07 PM 36.7460 -76.4860 32° Northeast 548 631 37,000  Level FlightAware ADS-B
Mon 08:22:32 PM 36.9540 -76.3290 31° Northeast 552 635 37,000  Level FlightAware ADS-B
Mon 08:23:17 PM 37.0560 -76.2500 32° Northeast 551 634 37,000  Level FlightAware ADS-B
Mon 08:23:50 PM 37.1409 -76.1839 32° Northeast 560 644 37,000  Level FlightAware ADS-B
Mon 08:24:29 PM 37.2273 -76.1169 32° Northeast 561 646 37,000  Level FlightAware ADS-B
Mon 08:25:01 PM 37.2993 -76.0609 32° Northeast 563 648 37,000  Level FlightAware ADS-B
Mon 08:25:37 PM 37.3768 -76.0004 32° Northeast 564 649 37,000  Level FlightAware ADS-B
Mon 08:26:07 PM 37.4350 -75.9550 32° Northeast 565 650 37,000  Level FlightAware ADS-B
Mon 08:26:47 PM 37.5200 -75.8850 33° Northeast 565 650 37,000  Level FlightAware ADS-B
Mon 08:27:12 PM 37.5735 -75.8142 46° Northeast 555 639 37,000  Level FlightAware ADS-B
Mon 08:27:42 PM 37.6244 -75.7400 49° Northeast 554 638 37,000  Level FlightAware ADS-B
Mon 08:28:13 PM 37.6759 -75.6657 49° Northeast 553 636 37,000  Level FlightAware ADS-B
Mon 08:28:43 PM 37.7279 -75.5904 49° Northeast 554 638 37,000  Level FlightAware ADS-B
Mon 08:29:14 PM 37.7775 -75.5182 49° Northeast 554 638 37,000  Level FlightAware ADS-B
Mon 08:29:50 PM 37.8390 -75.4296 49° Northeast 555 639 37,000  Level FlightAware ADS-B
Mon 08:30:45 PM 37.9312 -75.2965 49° Northeast 555 639 37,000  Level FlightAware ADS-B
Mon 08:31:16 PM 37.9828 -75.2217 49° Northeast 555 639 37,000  Level FlightAware ADS-B
Mon 08:31:46 PM 38.0344 -75.1466 49° Northeast 556 640 37,000  Level FlightAware ADS-B
Mon 08:32:16 PM 38.0854 -75.0724 49° Northeast 556 640 37,000  Level FlightAware ADS-B
Mon 08:32:47 PM 38.1373 -74.9965 49° Northeast 557 641 37,000  Level FlightAware ADS-B
Mon 08:33:18 PM 38.1893 -74.9206 49° Northeast 557 641 37,000  Level FlightAware ADS-B
Mon 08:33:55 PM 38.2532 -74.8267 49° Northeast 557 641 37,000  Level FlightAware ADS-B
Mon 08:34:26 PM 38.3029 -74.7535 49° Northeast 557 641 37,000  Level FlightAware ADS-B
Mon 08:34:59 PM 38.3591 -74.6707 49° Northeast 558 642 37,000  Level FlightAware ADS-B
Mon 08:35:29 PM 38.4113 -74.5935 49° Northeast 559 643 37,000  Level FlightAware ADS-B
Mon 08:36:00 PM 38.4611 -74.5197 49° Northeast 558 642 37,000  Level FlightAware ADS-B
Mon 08:36:31 PM 38.5145 -74.4404 49° Northeast 558 642 37,000  Level FlightAware ADS-B
Mon 08:37:07 PM 38.5670 -74.3610 50° Northeast 552 635 37,000  Level FlightAware ADS-B
Mon 08:37:29 PM 38.6123 -74.2944 49° Northeast 558 642 37,000  Level FlightAware ADS-B
Mon 08:38:04 PM 38.6692 -74.2094 49° Northeast 557 641 37,000  Level FlightAware ADS-B
Mon 08:38:36 PM 38.7229 -74.1287 50° Northeast 557 641 37,000  Level FlightAware ADS-B
Mon 08:39:06 PM 38.7747 -74.0509 49° Northeast 558 642 37,000  Level FlightAware ADS-B
Mon 08:39:37 PM 38.8244 -73.9759 50° Northeast 558 642 37,000  Level FlightAware ADS-B
Mon 08:40:08 PM 38.8759 -73.8982 50° Northeast 559 643 37,000  Level FlightAware ADS-B
Mon 08:40:38 PM 38.9270 -73.8207 50° Northeast 560 644 37,000  Level FlightAware ADS-B
Mon 08:41:11 PM 38.9811 -73.7385 50° Northeast 561 646 37,000  Level FlightAware ADS-B
Mon 08:41:46 PM 39.0415 -73.6464 50° Northeast 561 646 37,000  Level FlightAware ADS-B
Mon 08:42:23 PM 39.1013 -73.5551 50° Northeast 561 646 37,000  Level FlightAware ADS-B
Mon 08:42:55 PM 39.1555 -73.4720 50° Northeast 560 644 37,000  Level FlightAware ADS-B
Mon 08:43:25 PM 39.2064 -73.3939 50° Northeast 559 643 37,000  Level FlightAware ADS-B
Mon 08:44:00 PM 39.2620 -73.3082 50° Northeast 559 643 37,000  Level FlightAware ADS-B
Mon 08:44:32 PM 39.3159 -73.2250 50° Northeast 559 643 37,000  Level FlightAware ADS-B
Mon 08:45:02 PM 39.3672 -73.1456 50° Northeast 560 644 37,000  Level FlightAware ADS-B
Mon 08:45:33 PM 39.4168 -73.0687 50° Northeast 560 644 37,000  Level FlightAware ADS-B
Mon 08:46:03 PM 39.4667 -72.9910 50° Northeast 560 644 37,000  Level FlightAware ADS-B
Mon 08:46:34 PM 39.5189 -72.9094 50° Northeast 562 647 37,000  Level FlightAware ADS-B
Mon 08:47:05 PM 39.5703 -72.8292 50° Northeast 563 648 37,000  Level FlightAware ADS-B
Mon 08:47:37 PM 39.6209 -72.7498 50° Northeast 562 647 37,000  Level FlightAware ADS-B
Mon 08:48:13 PM 39.6816 -72.6543 50° Northeast 562 647 37,000  Level FlightAware ADS-B
Mon 08:48:45 PM 39.7348 -72.5705 50° Northeast 561 646 37,000  Level FlightAware ADS-B
Mon 08:49:15 PM 39.7838 -72.4930 51° Northeast 562 647 37,000  Level FlightAware ADS-B
Mon 08:49:46 PM 39.8344 -72.4127 51° Northeast 561 646 37,000  Level FlightAware ADS-B
Mon 08:50:37 PM 39.9186 -72.2789 51° Northeast 562 647 37,000  Level FlightAware ADS-B
Mon 08:51:17 PM 39.9820 -72.1780 51° Northeast 563 648 37,000  Level FlightAware ADS-B
Mon 08:52:02 PM 40.0560 -72.0600 51° Northeast 564 649 37,000  Level FlightAware ADS-B
Mon 08:52:42 PM 40.1180 -71.9600 51° Northeast 565 650 37,000  Level FlightAware ADS-B
Mon 08:53:27 PM 40.1930 -71.8380 51° Northeast 565 650 37,000  Level FlightAware ADS-B
Mon 08:54:02 PM 40.2540 -71.7410 50° Northeast 566 651 37,000  Level FlightAware ADS-B
Mon 08:54:47 PM 40.3220 -71.6290 51° Northeast 565 650 37,000  Level FlightAware ADS-B
Mon 08:55:27 PM 40.3850 -71.5260 51° Northeast 564 649 37,000  Level FlightAware ADS-B
Mon 08:56:12 PM 40.4540 -71.4150 51° Northeast 564 649 37,000  Level FlightAware ADS-B
Mon 08:56:52 PM 40.5100 -71.3240 51° Northeast 564 649 37,000  Level FlightAware ADS-B
Mon 08:57:32 PM 40.5650 -71.2340 51° Northeast 564 649 37,000  Level FlightAware ADS-B
Mon 08:58:12 PM 40.6210 -71.1430 51° Northeast 564 649 37,000  Level FlightAware ADS-B
Mon 08:58:57 PM 40.7310 -70.9570 52° Northeast 566 651 37,000  Level FlightAware ADS-B
Mon 08:59:42 PM 40.8060 -70.8320 52° Northeast 559 643 37,000  Level FlightAware ADS-B
Mon 09:00:37 PM 40.9020 -70.6940 47° Northeast 557 641 37,000  Level FlightAware ADS-B
Mon 09:01:17 PM 40.9720 -70.6020 45° Northeast 563 648 37,000  Level FlightAware ADS-B
Mon 09:02:02 PM 41.0600 -70.4860 45° Northeast 565 650 37,000  Level FlightAware ADS-B
Mon 09:02:42 PM 41.1260 -70.4000 44° Northeast 565 650 37,000  Level FlightAware ADS-B
Mon 09:03:27 PM 41.2150 -70.2830 45° Northeast 567 652 37,000  Level FlightAware ADS-B
Mon 09:04:07 PM 41.2910 -70.1830 45° Northeast 566 651 37,000  Level FlightAware ADS-B
Mon 09:04:57 PM 41.3860 -70.0560 45° Northeast 566 651 37,000  Level FlightAware ADS-B
Mon 09:05:47 PM 41.4760 -69.9370 45° Northeast 558 642 37,000  Level FlightAware ADS-B
Mon 09:06:27 PM 41.5500 -69.8370 45° Northeast 566 651 37,000  Level FlightAware ADS-B
Mon 09:07:07 PM 41.6270 -69.7340 45° Northeast 567 652 37,000  Level FlightAware ADS-B
Mon 09:07:47 PM 41.6980 -69.6380 45° Northeast 568 654 37,000  Level FlightAware ADS-B
Mon 09:08:32 PM 41.7830 -69.5240 45° Northeast 569 655 37,000  Level FlightAware ADS-B
Mon 09:09:17 PM 41.8630 -69.4150 45° Northeast 570 656 37,000  Level FlightAware ADS-B
Mon 09:09:57 PM 41.9390 -69.3050 47° Northeast 572 658 37,000  Level FlightAware ADS-B
Mon 09:10:42 PM 42.0030 -69.1780 56° Northeast 574 661 37,000  Level FlightAware ADS-B
Mon 09:11:22 PM 42.0650 -69.0570 55° Northeast 573 659 37,000  Level FlightAware ADS-B
Mon 09:12:02 PM 42.1200 -68.9490 56° Northeast 575 662 37,000  Level FlightAware ADS-B
Mon 09:12:47 PM 42.1920 -68.8080 55° Northeast 573 659 37,000  Level FlightAware ADS-B
Mon 09:13:27 PM 42.2530 -68.6870 56° Northeast 571 657 37,000  Level FlightAware ADS-B
Mon 09:14:07 PM 42.3100 -68.5730 56° Northeast 571 657 37,000  Level FlightAware ADS-B
Mon 09:14:52 PM 42.3750 -68.4420 56° Northeast 565 650 37,000  Level FlightAware ADS-B
Mon 09:15:47 PM 42.4460 -68.3000 56° Northeast 564 649 37,000  Level FlightAware ADS-B
Mon 09:16:27 PM 42.5110 -68.1700 56° Northeast 562 647 37,000  Level FlightAware ADS-B
Mon 09:17:12 PM 42.5800 -68.0290 56° Northeast 560 644 37,000  Level FlightAware ADS-B
Mon 09:17:47 PM 42.6210 -67.9430 57° Northeast 560 644 37,000  Level FlightAware ADS-B
Mon 09:18:37 PM 42.6810 -67.8180 57° Northeast 560 644 37,000  Level FlightAware ADS-B
Mon 09:19:17 PM 42.7290 -67.7170 57° Northeast 560 644 37,000  Level FlightAware ADS-B
Mon 09:19:57 PM 42.7770 -67.6170 57° Northeast 560 644 37,000  Level FlightAware ADS-B
Mon 09:20:37 PM 42.8250 -67.5160 57° Northeast 560 644 37,000  Level FlightAware ADS-B
Mon 09:21:22 PM 42.9370 -67.2950 55° Northeast 563 648 37,000  Level FlightAware ADS-B
Mon 09:22:07 PM 43.0020 -67.1590 57° Northeast 562 647 37,000  Level FlightAware ADS-B
Mon 09:23:02 PM 43.0730 -67.0110 57° Northeast 561 646 37,000  Level FlightAware ADS-B
Mon 09:23:37 PM 43.1270 -66.8980 57° Northeast 562 647 37,000  Level FlightAware ADS-B
Mon 09:24:27 PM 43.1990 -66.7450 57° Northeast 563 648 37,000  Level FlightAware ADS-B
Mon 09:25:02 PM 43.2470 -66.6420 57° Northeast 564 649 37,000  Level FlightAware ADS-B
Mon 09:25:47 PM 43.3150 -66.4970 57° Northeast 564 649 37,000  Level FlightAware ADS-B
Mon 09:26:32 PM 43.3790 -66.3620 57° Northeast 565 650 37,000  Level FlightAware ADS-B
Mon 09:27:17 PM 43.4400 -66.2290 58° Northeast 566 651 37,000  Level FlightAware ADS-B
Mon 09:27:57 PM 43.4970 -66.1070 57° Northeast 566 651 37,000  Level FlightAware ADS-B
Mon 09:28:37 PM 43.5530 -65.9840 58° Northeast 565 650 37,000  Level FlightAware ADS-B
Mon 09:29:22 PM 43.6150 -65.8490 58° Northeast 562 647 37,000  Level FlightAware ADS-B
Mon 09:30:02 PM 43.6710 -65.7260 58° Northeast 563 648 37,000  Level FlightAware ADS-B
Mon 09:30:47 PM 43.7350 -65.5860 58° Northeast 565 650 37,000  Level FlightAware ADS-B
Mon 09:31:27 PM 43.7910 -65.4620 58° Northeast 567 652 37,000  Level FlightAware ADS-B
Mon 09:32:07 PM 43.8470 -65.3380 58° Northeast 567 652 37,000  Level FlightAware ADS-B
Mon 09:32:52 PM 43.9080 -65.2010 58° Northeast 566 651 37,000  Level FlightAware ADS-B
Mon 09:33:32 PM 43.9640 -65.0760 58° Northeast 564 649 37,000  Level FlightAware ADS-B
Mon 09:34:17 PM 44.0250 -64.9390 58° Northeast 564 649 37,000  Level FlightAware ADS-B
Mon 09:34:57 PM 44.0810 -64.8120 58° Northeast 563 648 37,000  Level FlightAware ADS-B
Mon 09:35:37 PM 44.1330 -64.6950 58° Northeast 563 648 37,000  Level FlightAware ADS-B
Mon 09:36:22 PM 44.1970 -64.5480 59° Northeast 563 648 37,000  Level FlightAware ADS-B
Mon 09:37:02 PM 44.2520 -64.4220 59° Northeast 568 654 37,000  Level FlightAware ADS-B
Mon 09:37:42 PM 44.3050 -64.3000 59° Northeast 569 655 37,000  Level FlightAware ADS-B
Mon 09:38:22 PM 44.3620 -64.1690 59° Northeast 569 655 37,000  Level FlightAware ADS-B
Mon 09:39:07 PM 44.4180 -64.0390 59° Northeast 570 656 37,000  Level FlightAware ADS-B
Mon 09:39:52 PM 44.4840 -63.8850 59° Northeast 570 656 37,000  Level FlightAware ADS-B
Mon 09:40:32 PM 44.5370 -63.7610 59° Northeast 571 657 37,000  Level FlightAware ADS-B
Mon 09:41:17 PM 44.5960 -63.6210 59° Northeast 570 656 37,000  Level FlightAware ADS-B
Mon 09:41:57 PM 44.6490 -63.4950 59° Northeast 571 657 37,000  Level FlightAware ADS-B
Mon 09:42:32 PM 44.6970 -63.3820 59° Northeast 573 659 37,000  Level FlightAware ADS-B
Mon 09:43:12 PM 44.7490 -63.2570 60° Northeast 573 659 37,000  Level FlightAware ADS-B
Mon 09:43:52 PM 44.8010 -63.1320 60° Northeast 573 659 37,000  Level FlightAware ADS-B
Mon 09:44:42 PM 44.8700 -62.9670 59° Northeast 572 658 37,000  Level FlightAware ADS-B
Mon 09:45:27 PM 44.9240 -62.8340 60° Northeast 573 659 37,000  Level FlightAware ADS-B
Mon 09:46:07 PM 44.9690 -62.7240 60° Northeast 573 659 37,000  Level FlightAware ADS-B
Mon 09:46:47 PM 45.0140 -62.6130 60° Northeast 573 659 37,000  Level FlightAware ADS-B
Mon 09:47:27 PM 45.0590 -62.5030 60° Northeast 573 659 37,000  Level FlightAware ADS-B
Mon 09:48:17 PM 45.1160 -62.3650 60° Northeast 573 659 37,000  Level FlightAware ADS-B
Mon 09:48:57 PM 45.1610 -62.2540 60° Northeast 573 659 37,000  Level FlightAware ADS-B
Mon 09:49:37 PM 45.2060 -62.1430 60° Northeast 573 659 37,000  Level FlightAware ADS-B
Mon 09:50:17 PM 45.2510 -62.0320 60° Northeast 573 659 37,000  Level FlightAware ADS-B
Mon 09:50:57 PM 45.2960 -61.9210 60° Northeast 573 659 37,000  Level FlightAware ADS-B
Mon 09:51:37 PM 45.3410 -61.8100 60° Northeast 573 659 37,000  Level FlightAware ADS-B
Mon 09:52:27 PM 45.3970 -61.6710 60° Northeast 573 659 37,000  Level FlightAware ADS-B
Mon 09:53:07 PM 45.4420 -61.5600 60° Northeast 573 659 37,000  Level FlightAware ADS-B
Mon 09:53:47 PM 45.5840 -61.1770 62° Northeast 579 666 37,000  Level FlightAware ADS-B
Mon 09:54:32 PM 45.6390 -61.0310 62° Northeast 578 665 37,000  Level FlightAware ADS-B
Mon 09:55:12 PM 45.6900 -60.8960 62° Northeast 579 666 37,000  Level FlightAware ADS-B
Mon 09:55:57 PM 45.7480 -60.7400 62° Northeast 580 667 37,000  Level FlightAware ADS-B
Mon 09:56:37 PM 45.7980 -60.6060 62° Northeast 581 669 37,000  Level FlightAware ADS-B
Mon 09:57:22 PM 45.8540 -60.4540 62° Northeast 582 670 37,000  Level FlightAware ADS-B
Mon 09:58:02 PM 45.9040 -60.3190 62° Northeast 581 669 37,000  Level FlightAware ADS-B
Mon 09:58:42 PM 45.9550 -60.1810 62° Northeast 582 670 37,000  Level FlightAware ADS-B
Mon 09:59:27 PM 46.0120 -60.0240 62° Northeast 582 670 37,000  Level FlightAware ADS-B
Mon 10:00:07 PM 46.0620 -59.8870 62° Northeast 583 671 37,000  Level FlightAware ADS-B
Mon 10:00:47 PM 46.1110 -59.7490 63° Northeast 583 671 37,000  Level FlightAware ADS-B
Mon 10:01:32 PM 46.1660 -59.5960 63° Northeast 581 669 37,000  Level FlightAware ADS-B
Mon 10:02:12 PM 46.2150 -59.4590 63° Northeast 577 664 37,000  Level FlightAware ADS-B
Mon 10:02:57 PM 46.2710 -59.3030 63° Northeast 576 663 37,000  Level FlightAware ADS-B
Mon 10:03:37 PM 46.3180 -59.1680 63° Northeast 575 662 37,000  Level FlightAware ADS-B
Mon 10:04:22 PM 46.3720 -59.0140 63° Northeast 574 661 37,000  Level FlightAware ADS-B
Mon 10:05:02 PM 46.4190 -58.8820 63° Northeast 573 659 37,000  Level FlightAware ADS-B
Mon 10:05:42 PM 46.4660 -58.7440 64° Northeast 574 661 37,000  Level FlightAware ADS-B
Mon 10:06:27 PM 46.5210 -58.5870 63° Northeast 573 659 37,000  Level FlightAware ADS-B
Mon 10:07:07 PM 46.5690 -58.4460 64° Northeast 571 657 37,000  Level FlightAware ADS-B
Mon 10:07:52 PM 46.6200 -58.2980 63° Northeast 571 657 37,000  Level FlightAware ADS-B
Mon 10:08:32 PM 46.6660 -58.1620 64° Northeast 568 654 37,000  Level FlightAware ADS-B
Mon 10:09:12 PM 46.7130 -58.0230 64° Northeast 566 651 37,000  Level FlightAware ADS-B
Mon 10:09:57 PM 46.7660 -57.8640 64° Northeast 562 647 37,000  Level FlightAware ADS-B
Mon 10:10:37 PM 46.8110 -57.7320 63° Northeast 558 642 37,000  Level FlightAware ADS-B
Mon 10:11:22 PM 46.8590 -57.5850 64° Northeast 555 639 37,000  Level FlightAware ADS-B
Mon 10:12:02 PM 46.9040 -57.4480 64° Northeast 552 635 37,000  Level FlightAware ADS-B
Mon 10:12:37 PM 46.9400 -57.3410 64° Northeast 552 635 37,000  Level FlightAware ADS-B
Mon 10:13:27 PM 46.9870 -57.1980 64° Northeast 552 635 37,000  Level FlightAware ADS-B
Mon 10:14:07 PM 47.0390 -57.0390 64° Northeast 545 627 37,000 353 Level FlightAware ADS-B
Mon 10:14:52 PM 47.0870 -56.8860 65° Northeast 538 619 37,500 375 Climbing FlightAware ADS-B
Mon 10:15:27 PM 47.1220 -56.7760 65° Northeast 538 619 37,500 375 Level FlightAware ADS-B
Mon 10:16:12 PM 47.1690 -56.6290 65° Northeast 535 616 38,000 333 Climbing FlightAware ADS-B
Mon 10:16:57 PM 47.2190 -56.4710 65° Northeast 530 610 38,000  Level FlightAware ADS-B
Mon 10:17:37 PM 47.2610 -56.3370 65° Northeast 528 608 38,000  Level FlightAware ADS-B
Mon 10:18:22 PM 47.3040 -56.1960 66° East 526 605 38,000  Level FlightAware ADS-B
Mon 10:18:57 PM 47.3360 -56.0960 65° Northeast 526 605 38,000  Level FlightAware ADS-B
Mon 10:19:37 PM 47.3710 -55.9850 65° Northeast 526 605 38,000  Level FlightAware ADS-B
Mon 10:20:27 PM 47.4300 -55.7880 66° East 520 598 38,000  Level FlightAware ADS-B
Mon 10:21:07 PM 47.4700 -55.6580 65° Northeast 519 597 38,000  Level FlightAware ADS-B
Mon 10:21:47 PM 47.5090 -55.5280 66° East 518 596 38,000  Level FlightAware ADS-B
Mon 10:22:32 PM 47.5510 -55.3880 66° East 517 595 38,000  Level FlightAware ADS-B
Mon 10:23:12 PM 47.5910 -55.2550 66° East 518 596 38,000  Level FlightAware ADS-B
Mon 10:23:57 PM 47.6350 -55.1090 66° East 520 598 38,000  Level FlightAware ADS-B
Mon 10:24:37 PM 47.6740 -54.9760 66° East 521 600 38,000  Level FlightAware ADS-B
Mon 10:25:22 PM 47.7160 -54.8350 66° East 521 600 38,000  Level FlightAware ADS-B
Mon 10:26:02 PM 47.7550 -54.7010 67° East 519 597 38,000  Level FlightAware ADS-B
Mon 10:26:42 PM 47.7920 -54.5730 67° East 517 595 38,000  Level FlightAware ADS-B
Mon 10:27:27 PM 47.8360 -54.4220 66° East 515 593 38,000  Level FlightAware ADS-B
Mon 10:28:07 PM 47.8730 -54.2920 67° East 513 590 38,000  Level FlightAware ADS-B
Mon 10:28:52 PM 47.9130 -54.1530 67° East 512 589 38,000  Level FlightAware ADS-B
Mon 10:29:32 PM 47.9510 -54.0200 67° East 511 588 38,000  Level FlightAware ADS-B
Mon 10:30:12 PM 47.9880 -53.8900 67° East 510 587 38,000  Level FlightAware ADS-B
Mon 10:30:57 PM 48.0290 -53.7440 67° East 510 587 38,000  Level FlightAware ADS-B
Mon 10:31:37 PM 48.0660 -53.6100 68° East 512 589 38,000  Level FlightAware ADS-B
Mon 10:32:22 PM 48.1070 -53.4660 67° East 511 588 38,000  Level FlightAware ADS-B
Mon 10:33:02 PM 48.1420 -53.3370 68° East 512 589 38,000  Level FlightAware ADS-B
Mon 10:33:47 PM 48.1820 -53.1930 67° East 514 592 38,000  Level FlightAware ADS-B
Mon 10:34:27 PM 48.2190 -53.0570 68° East 517 595 38,000  Level FlightAware ADS-B
Mon 10:35:07 PM 48.2560 -52.9220 68° East 518 596 38,000  Level FlightAware ADS-B
Mon 10:35:52 PM 48.2960 -52.7750 68° East 517 595 38,000  Level FlightAware ADS-B
Mon 10:36:32 PM 48.3300 -52.6460 68° East 517 595 38,000  Level FlightAware ADS-B
Mon 10:37:17 PM 48.3720 -52.4910 68° East 517 595 38,000  Level FlightAware ADS-B
Mon 10:37:57 PM 48.4040 -52.3680 69° East 516 594 38,000  Level FlightAware ADS-B
Mon 10:38:37 PM 48.4390 -52.2350 68° East 516 594 38,000  Level FlightAware ADS-B
Mon 10:39:22 PM 48.4780 -52.0880 68° East 513 590 38,000  Level FlightAware ADS-B
Mon 10:40:02 PM 48.5150 -51.9480 68° East 515 593 38,000  Level FlightAware ADS-B
Mon 10:40:42 PM 48.5490 -51.8150 69° East 517 595 38,000  Level FlightAware ADS-B
Mon 10:41:27 PM 48.5890 -51.6620 68° East 518 596 38,000  Level FlightAware ADS-B
Mon 10:42:07 PM 48.6230 -51.5260 69° East 515 593 38,000  Level FlightAware ADS-B
Mon 10:42:47 PM 48.6580 -51.3890 69° East 513 590 38,000  Level FlightAware ADS-B
Mon 10:43:32 PM 48.6980 -51.2330 69° East 511 588 38,000  Level FlightAware ADS-B
Mon 10:44:12 PM 48.7300 -51.1060 69° East 512 589 38,000  Level FlightAware ADS-B
Mon 10:44:57 PM 48.7680 -50.9510 70° East 507 583 38,000  Level FlightAware ADS-B
Mon 10:45:37 PM 48.8020 -50.8170 69° East 506 582 38,000  Level FlightAware ADS-B
Mon 10:46:22 PM 48.8380 -50.6710 69° East 503 579 38,000  Level FlightAware ADS-B
Mon 10:47:02 PM 48.8700 -50.5400 70° East 500 575 38,000  Level FlightAware ADS-B
Mon 10:47:42 PM 48.9010 -50.4090 70° East 500 575 38,000  Level FlightAware ADS-B
Mon 10:48:27 PM 48.9380 -50.2580 69° East 501 577 38,000  Level FlightAware ADS-B
Mon 10:49:02 PM 48.9640 -50.1490 70° East 502 578 38,000  Level FlightAware ADS-B
Mon 10:49:47 PM 48.9960 -50.0150 70° East 502 578 38,000  Level FlightAware ADS-B
Mon 10:50:27 PM 49.0230 -49.9020 70° East 502 578 38,000  Level FlightAware ADS-B
Mon 10:51:07 PM 49.0500 -49.7890 70° East 502 578 38,000  Level FlightAware ADS-B
Mon 10:51:57 PM 49.0840 -49.6470 70° East 502 578 38,000  Level FlightAware ADS-B
Mon 10:52:37 PM 49.1110 -49.5340 70° East 502 578 38,000  Level FlightAware ADS-B
Mon 10:53:07 PM 49.1310 -49.4490 70° East 502 578 38,000  Level FlightAware ADS-B
Mon 10:53:47 PM 49.1580 -49.3360 70° East 502 578 38,000  Level FlightAware ADS-B
Mon 10:54:27 PM 49.1850 -49.2220 70° East 502 578 38,000  Level FlightAware ADS-B
Mon 10:55:07 PM 49.2120 -49.1080 70° East 502 578 38,000  Level FlightAware ADS-B
Mon 10:55:57 PM 49.2460 -48.9660 70° East 502 578 38,000  Level FlightAware ADS-B
Mon 10:56:37 PM 49.2730 -48.8530 70° East 502 578 38,000  Level FlightAware ADS-B
Mon 10:57:17 PM 49.3000 -48.7390 70° East 502 578 38,000  Level FlightAware ADS-B
Mon 10:57:57 PM 49.3270 -48.6250 70° East 502 578 38,000  Level FlightAware ADS-B
Mon 10:58:37 PM 49.3540 -48.5110 70° East 502 578 38,000  Level FlightAware ADS-B
Mon 10:59:17 PM 49.3810 -48.3970 70° East 502 578 38,000  Level FlightAware ADS-B
Mon 11:00:07 PM 49.4667 -47.7833 70° East 530 610 38,000  Level Gander Center
Mon 11:01:07 PM 49.5167 -47.5667 70° East 530 610 38,000  Level Gander Center
Mon 11:01:22 PM 49.5167 -47.5000 90° East 530 610 38,000  Level Gander Center
Mon 11:02:07 PM 49.5500 -47.3667 69° East 530 610 38,000  Level Gander Center
Mon 11:03:07 PM 49.6000 -47.1500 70° East 530 610 38,000  Level Gander Center
Mon 11:03:22 PM 49.6000 -47.0833 90° East 530 610 38,000  Level Gander Center
Mon 11:05:00 PM 49.6786 -46.7506 70° East  Level FlightAware Approximate
Mon 11:12:00 PM 50.0045 -45.3128 70° East  Level FlightAware Approximate
Mon 11:13:00 PM 50.0496 -45.1058 71° East  Level FlightAware Approximate
Mon 11:14:00 PM 50.0944 -44.8985 71° East  Level FlightAware Approximate
Mon 11:15:00 PM 50.1387 -44.6907 72° East  Level FlightAware Approximate
Mon 11:16:00 PM 50.1827 -44.4826 72° East  Level FlightAware Approximate
Mon 11:17:00 PM 50.2263 -44.2741 72° East  Level FlightAware Approximate
Mon 11:18:00 PM 50.2696 -44.0652 72° East  Level FlightAware Approximate
Mon 11:19:00 PM 50.3125 -43.8559 72° East  Level FlightAware Approximate
Mon 11:20:00 PM 50.3550 -43.6462 72° East  Level FlightAware Approximate
Mon 11:21:00 PM 50.3971 -43.4362 72° East  Level FlightAware Approximate
Mon 11:22:00 PM 50.4388 -43.2258 73° East  Level FlightAware Approximate
Mon 11:23:00 PM 50.4802 -43.0150 73° East  Level FlightAware Approximate
Mon 11:24:00 PM 50.5212 -42.8039 73° East  Level FlightAware Approximate
Mon 11:25:00 PM 50.5617 -42.5924 73° East  Level FlightAware Approximate
Mon 11:26:00 PM 50.6005 -42.3792 74° East  Level FlightAware Approximate
Mon 11:27:00 PM 50.6385 -42.1662 74° East  Level FlightAware Approximate
Mon 11:28:00 PM 50.6762 -41.9528 74° East  Level FlightAware Approximate
Mon 11:29:00 PM 50.7134 -41.7391 75° East  Level FlightAware Approximate
Mon 11:30:00 PM 50.7503 -41.5251 75° East  Level FlightAware Approximate
Mon 11:31:00 PM 50.7868 -41.3107 75° East  Level FlightAware Approximate
Mon 11:32:00 PM 50.8228 -41.0960 75° East  Level FlightAware Approximate
Mon 11:33:00 PM 50.8585 -40.8809 75° East  Level FlightAware Approximate
Mon 11:34:00 PM 50.8938 -40.6655 75° East  Level FlightAware Approximate
Mon 11:35:00 PM 50.9287 -40.4498 76° East  Level FlightAware Approximate
Mon 11:36:00 PM 50.9632 -40.2338 76° East  Level FlightAware Approximate
Mon 11:37:00 PM 50.9973 -40.0175 76° East  Level FlightAware Approximate
Mon 11:38:00 PM 51.0480 -39.8095 68° East  Level FlightAware Approximate
Mon 11:39:00 PM 51.0998 -39.6018 68° East  Level FlightAware Approximate
Mon 11:40:00 PM 51.1513 -39.3937 68° East  Level FlightAware Approximate
Mon 11:41:00 PM 51.2024 -39.1851 69° East  Level FlightAware Approximate
Mon 11:42:00 PM 51.2532 -38.9760 69° East  Level FlightAware Approximate
Mon 11:43:00 PM 51.3035 -38.7665 69° East  Level FlightAware Approximate
Mon 11:44:00 PM 51.3535 -38.5565 69° East  Level FlightAware Approximate
Mon 11:45:00 PM 51.4031 -38.3460 69° East  Level FlightAware Approximate
Mon 11:46:00 PM 51.4523 -38.1351 69° East  Level FlightAware Approximate
Mon 11:47:00 PM 51.5012 -37.9238 70° East  Level FlightAware Approximate
Mon 11:48:00 PM 51.5497 -37.7120 70° East  Level FlightAware Approximate
Mon 11:49:00 PM 51.5978 -37.4997 70° East  Level FlightAware Approximate
Mon 11:50:00 PM 51.6455 -37.2870 70° East  Level FlightAware Approximate
Mon 11:51:00 PM 51.6928 -37.0739 70° East  Level FlightAware Approximate
Mon 11:52:00 PM 51.7397 -36.8603 70° East  Level FlightAware Approximate
Mon 11:53:00 PM 51.7863 -36.6463 71° East  Level FlightAware Approximate
Mon 11:54:00 PM 51.8324 -36.4318 71° East  Level FlightAware Approximate
Mon 11:55:00 PM 51.8782 -36.2169 71° East  Level FlightAware Approximate
Mon 11:56:00 PM 51.9236 -36.0015 71° East  Level FlightAware Approximate
Mon 11:57:00 PM 51.9685 -35.7858 71° East  Level FlightAware Approximate
Mon 11:58:00 PM 52.0131 -35.5695 71° East  Level FlightAware Approximate
Mon 11:59:00 PM 52.0573 -35.3529 72° East  Level FlightAware Approximate
Tue 12:00:00 AM 52.1011 -35.1358 72° East  Level FlightAware Approximate
Tue 12:01:00 AM 52.1445 -34.9183 72° East  Level FlightAware Approximate
Tue 12:02:00 AM 52.1875 -34.7004 72° East  Level FlightAware Approximate
Tue 12:03:00 AM 52.2301 -34.4821 72° East  Level FlightAware Approximate
Tue 12:04:00 AM 52.2723 -34.2633 72° East  Level FlightAware Approximate
Tue 12:05:00 AM 52.3140 -34.0442 73° East  Level FlightAware Approximate
Tue 12:06:00 AM 52.3554 -33.8246 73° East  Level FlightAware Approximate
Tue 12:07:00 AM 52.3964 -33.6046 73° East  Level FlightAware Approximate
Tue 12:08:00 AM 52.4369 -33.3842 73° East  Level FlightAware Approximate
Tue 12:09:00 AM 52.4771 -33.1634 73° East  Level FlightAware Approximate
Tue 12:10:00 AM 52.5168 -32.9422 73° East  Level FlightAware Approximate
Tue 12:11:00 AM 52.5561 -32.7206 74° East  Level FlightAware Approximate
Tue 12:12:00 AM 52.5951 -32.4986 74° East  Level FlightAware Approximate
Tue 12:13:00 AM 52.6335 -32.2762 74° East  Level FlightAware Approximate
Tue 12:14:00 AM 52.6716 -32.0534 74° East  Level FlightAware Approximate
Tue 12:15:00 AM 52.7093 -31.8302 74° East  Level FlightAware Approximate
Tue 12:16:00 AM 52.7465 -31.6067 75° East  Level FlightAware Approximate
Tue 12:17:00 AM 52.7833 -31.3828 75° East  Level FlightAware Approximate
Tue 12:18:00 AM 52.8197 -31.1584 75° East  Level FlightAware Approximate
Tue 12:19:00 AM 52.8557 -30.9338 75° East  Level FlightAware Approximate
Tue 12:20:00 AM 52.8912 -30.7087 75° East  Level FlightAware Approximate
Tue 12:21:00 AM 52.9263 -30.4833 75° East  Level FlightAware Approximate
Tue 12:22:00 AM 52.9610 -30.2575 76° East  Level FlightAware Approximate
Tue 12:23:00 AM 52.9953 -30.0314 76° East  Level FlightAware Approximate
Tue 12:24:00 AM 53.0278 -29.8044 77° East  Level FlightAware Approximate
Tue 12:25:00 AM 53.0597 -29.5769 77° East  Level FlightAware Approximate
Tue 12:26:00 AM 53.0912 -29.3491 77° East  Level FlightAware Approximate
Tue 12:27:00 AM 53.1222 -29.1210 77° East  Level FlightAware Approximate
Tue 12:28:00 AM 53.1528 -28.8926 77° East  Level FlightAware Approximate
Tue 12:29:00 AM 53.1829 -28.6639 78° East  Level FlightAware Approximate
Tue 12:30:00 AM 53.2127 -28.4348 78° East  Level FlightAware Approximate
Tue 12:31:00 AM 53.2419 -28.2054 78° East  Level FlightAware Approximate
Tue 12:32:00 AM 53.2708 -27.9757 78° East  Level FlightAware Approximate
Tue 12:33:00 AM 53.2991 -27.7457 78° East  Level FlightAware Approximate
Tue 12:34:00 AM 53.3271 -27.5154 78° East  Level FlightAware Approximate
Tue 12:35:00 AM 53.3546 -27.2847 79° East  Level FlightAware Approximate
Tue 12:36:00 AM 53.3817 -27.0538 79° East  Level FlightAware Approximate
Tue 12:37:00 AM 53.4083 -26.8226 79° East  Level FlightAware Approximate
Tue 12:38:00 AM 53.4344 -26.5912 79° East  Level FlightAware Approximate
Tue 12:39:00 AM 53.4602 -26.3594 79° East  Level FlightAware Approximate
Tue 12:40:00 AM 53.4859 -26.1275 79° East  Level FlightAware Approximate
Tue 12:41:00 AM 53.5113 -25.8953 79° East  Level FlightAware Approximate
Tue 12:42:00 AM 53.5364 -25.6629 80° East  Level FlightAware Approximate
Tue 12:43:00 AM 53.5609 -25.4303 80° East  Level FlightAware Approximate
Tue 12:44:00 AM 53.5850 -25.1973 80° East  Level FlightAware Approximate
Tue 12:45:00 AM 53.6087 -24.9641 80° East  Level FlightAware Approximate
Tue 12:46:00 AM 53.6319 -24.7306 80° East  Level FlightAware Approximate
Tue 12:47:00 AM 53.6546 -24.4969 81° East  Level FlightAware Approximate
Tue 12:48:00 AM 53.6769 -24.2629 81° East  Level FlightAware Approximate
Tue 12:49:00 AM 53.6987 -24.0287 81° East  Level FlightAware Approximate
Tue 12:50:00 AM 53.7201 -23.7942 81° East  Level FlightAware Approximate
Tue 12:51:00 AM 53.7410 -23.5595 81° East  Level FlightAware Approximate
Tue 12:52:00 AM 53.7614 -23.3246 82° East  Level FlightAware Approximate
Tue 12:53:00 AM 53.7814 -23.0895 82° East  Level FlightAware Approximate
Tue 12:54:00 AM 53.8009 -22.8541 82° East  Level FlightAware Approximate
Tue 12:55:00 AM 53.8200 -22.6185 82° East  Level FlightAware Approximate
Tue 12:56:00 AM 53.8386 -22.3827 82° East  Level FlightAware Approximate
Tue 12:57:00 AM 53.8568 -22.1467 82° East  Level FlightAware Approximate
Tue 12:58:00 AM 53.8745 -21.9105 83° East  Level FlightAware Approximate
Tue 12:59:00 AM 53.8917 -21.6740 83° East  Level FlightAware Approximate
Tue 01:00:00 AM 53.9085 -21.4375 83° East  Level FlightAware Approximate
Tue 01:01:00 AM 53.9247 -21.2007 83° East  Level FlightAware Approximate
Tue 01:02:00 AM 53.9406 -20.9637 83° East  Level FlightAware Approximate
Tue 01:03:00 AM 53.9559 -20.7265 84° East  Level FlightAware Approximate
Tue 01:04:00 AM 53.9708 -20.4892 84° East  Level FlightAware Approximate
Tue 01:05:00 AM 53.9852 -20.2517 84° East  Level FlightAware Approximate
Tue 01:06:00 AM 53.9992 -20.0141 84° East  Level FlightAware Approximate
Tue 01:07:00 AM 54.0046 -19.7754 88° East  Level FlightAware Approximate
Tue 01:08:00 AM 54.0089 -19.5366 88° East  Level FlightAware Approximate
Tue 01:09:00 AM 54.0129 -19.2977 88° East  Level FlightAware Approximate
Tue 01:10:00 AM 54.0163 -19.0588 88° East  Level FlightAware Approximate
Tue 01:11:00 AM 54.0193 -18.8199 89° East  Level FlightAware Approximate
Tue 01:12:00 AM 54.0218 -18.5809 89° East  Level FlightAware Approximate
Tue 01:13:00 AM 54.0238 -18.3420 89° East  Level FlightAware Approximate
Tue 01:14:00 AM 54.0253 -18.1030 89° East  Level FlightAware Approximate
Tue 01:15:00 AM 54.0264 -17.8640 89° East  Level FlightAware Approximate
Tue 01:16:00 AM 54.0270 -17.6249 90° East  Level FlightAware Approximate
Tue 01:17:00 AM 54.0271 -17.3859 90° East  Level FlightAware Approximate
Tue 01:18:00 AM 54.0268 -17.1469 90° East  Level FlightAware Approximate
Tue 01:19:00 AM 54.0260 -16.9078 90° East  Level FlightAware Approximate
Tue 01:20:00 AM 54.0247 -16.6688 90° East  Level FlightAware Approximate
Tue 01:21:00 AM 54.0229 -16.4298 91° East  Level FlightAware Approximate
Tue 01:22:00 AM 54.0207 -16.1908 91° East  Level FlightAware Approximate
Tue 01:23:00 AM 54.0179 -15.9519 91° East  Level FlightAware Approximate
Tue 01:24:00 AM 54.0148 -15.7130 91° East  Level FlightAware Approximate
Tue 01:25:00 AM 54.0111 -15.4741 91° East  Level FlightAware Approximate
Tue 01:26:00 AM 54.0070 -15.2353 92° East  Level FlightAware Approximate
Tue 01:27:00 AM 54.0023 -14.9965 92° East  Level FlightAware Approximate
Tue 01:28:00 AM 53.9989 -14.7577 92° East  Level FlightAware Approximate
Tue 01:29:00 AM 53.9943 -14.5190 92° East  Level FlightAware Approximate
Tue 01:30:00 AM 53.9891 -14.2803 92° East  Level FlightAware Approximate
Tue 01:31:00 AM 53.9835 -14.0417 92° East  Level FlightAware Approximate
Tue 01:31:52 AM 53.9180 -11.6620 92° East 538 619 38,000  Level FlightAware ADS-B
Tue 01:32:00 AM 53.9774 -13.8032 92° East  Level FlightAware Approximate
Tue 01:32:42 AM 53.9090 -11.4650 94° East 537 618 38,000  Level FlightAware ADS-B
Tue 01:33:27 AM 53.8990 -11.2610 95° East 536 617 38,000  Level FlightAware ADS-B
Tue 01:34:02 AM 53.8930 -11.1320 94° East 535 616 38,000  Level FlightAware ADS-B
Tue 01:35:02 AM 53.8800 -10.8770 95° East 535 616 38,000  Level FlightAware ADS-B
Tue 01:35:42 AM 53.8710 -10.6970 95° East 534 615 38,000  Level FlightAware ADS-B
Tue 01:36:27 AM 53.8610 -10.5070 95° East 535 616 38,000  Level FlightAware ADS-B
Tue 01:37:07 AM 53.8530 -10.3630 95° East 535 616 38,000  Level FlightAware ADS-B
Tue 01:37:52 AM 53.8410 -10.1630 96° East 534 615 38,000  Level FlightAware ADS-B
Tue 01:38:27 AM 53.8340 -10.0310 95° East 534 615 38,000  Level FlightAware ADS-B
Tue 01:39:17 AM 53.8210 -9.8140 96° East 534 615 38,000  Level FlightAware ADS-B
Tue 01:39:57 AM 53.8110 -9.6500 96° East 533 613 38,000  Level FlightAware ADS-B
Tue 01:40:42 AM 53.7990 -9.4580 96° East 532 612 38,000  Level FlightAware ADS-B
Tue 01:41:17 AM 53.7900 -9.3180 96° East 533 613 38,000  Level FlightAware ADS-B
Tue 01:42:07 AM 53.7780 -9.1330 96° East 531 611 38,000 -1,233 Level FlightAware ADS-B
Tue 01:42:30 AM 53.7681 -8.9847 96° East 446 513 36,500  Descending FlightAware UK
Tue 01:42:42 AM 53.7670 -8.9690 96° East 530 610 38,000  Climbing FlightAware ADS-B
Tue 01:43:00 AM 53.7596 -8.8615 96° East 446 513 36,500 -2,500 Descending FlightAware UK
Tue 01:43:18 AM 53.7546 -8.7880 96° East 446 513 36,500  Level FlightAware UK
Tue 01:43:27 AM 53.7530 -8.7690 96° East 38,000  Climbing FlightAware ADS-B
Tue 01:43:42 AM 53.7480 -8.6897 96° East 444 511 36,500 -2,727 Descending FlightAware UK
Tue 01:44:00 AM 53.7427 -8.6161 97° East 444 511 36,500 3,600 Level FlightAware UK
Tue 01:44:07 AM 53.7430 -8.6190 97° East 528 608 38,000  Climbing FlightAware ADS-B
Tue 01:44:24 AM 53.7356 -8.5183 97° East 444 511 36,500 -2,571 Descending FlightAware UK
Tue 01:44:42 AM 53.7302 -8.4442 97° East 446 513 36,500 3,913 Level FlightAware UK
Tue 01:44:47 AM 53.7310 -8.4640 97° East 527 606 38,000  Climbing FlightAware ADS-B
Tue 01:45:06 AM 53.7230 -8.3460 97° East 458 527 36,500 -2,432 Descending FlightAware UK
Tue 01:45:24 AM 53.7177 -8.2718 97° East 464 534 36,500 3,462 Level FlightAware UK
Tue 01:45:32 AM 53.7170 -8.2680 97° East 547 629 38,000  Climbing FlightAware ADS-B
Tue 01:45:48 AM 53.7098 -8.1669 97° East 470 541 36,500 -2,647 Descending FlightAware UK
Tue 01:46:06 AM 53.7042 -8.0907 97° East 470 541 36,500 4,737 Level FlightAware UK
Tue 01:46:07 AM 53.7060 -8.1240 97° East 552 635 38,000  Climbing FlightAware ADS-B
Tue 01:46:24 AM 53.6984 -8.0138 97° East 468 539 36,500 -2,571 Descending FlightAware UK
Tue 01:46:42 AM 53.6926 -7.9375 97° East 468 539 36,500 2,727 Level FlightAware UK
Tue 01:46:57 AM 53.6890 -7.8890 97° East 550 633 38,000  Climbing FlightAware ADS-B
Tue 01:47:12 AM 53.6825 -7.8104 97° East 470 541 36,500 -2,727 Descending FlightAware UK
Tue 01:47:30 AM 53.6765 -7.7340 98° East 470 541 36,500 3,000 Level FlightAware UK
Tue 01:47:42 AM 53.6740 -7.6970 98° East 550 633 38,000  Climbing FlightAware ADS-B
Tue 01:48:00 AM 53.6668 -7.6067 98° East 470 541 36,500 -2,500 Descending FlightAware UK
Tue 01:48:18 AM 53.6606 -7.5302 98° East 470 541 36,500 4,091 Level FlightAware UK
Tue 01:48:22 AM 53.6600 -7.5280 98° East 550 633 38,000  Climbing FlightAware ADS-B
Tue 01:48:42 AM 53.6523 -7.4285 98° East 470 541 36,500 -2,368 Descending FlightAware UK
Tue 01:49:00 AM 53.6460 -7.3522 98° East 468 539 36,500 4,500 Level FlightAware UK
Tue 01:49:02 AM 53.6470 -7.3590 98° East 548 631 38,000  Climbing FlightAware ADS-B
Tue 01:49:18 AM 53.6396 -7.2760 98° East 470 541 36,500 -2,647 Descending FlightAware UK
Tue 01:49:36 AM 53.6331 -7.1990 98° East 470 541 36,500 3,103 Level FlightAware UK
Tue 01:49:47 AM 53.6320 -7.1780 98° East 547 629 38,000 -1,000 Climbing FlightAware ADS-B
Tue 01:50:06 AM 53.6226 -7.0725 98° East 470 541 36,000 -3,568 Descending FlightAware UK
Tue 01:50:24 AM 53.6164 -6.9966 98° East 468 539 35,800 3,714 Descending FlightAware UK
Tue 01:50:27 AM 53.6160 -6.9970 98° East 547 629 37,300 -1,000 Climbing FlightAware ADS-B
Tue 01:50:42 AM 53.6100 -6.9208 98° East 466 536 35,500 -3,818 Descending FlightAware UK
Tue 01:51:00 AM 53.6036 -6.8448 98° East 466 536 35,200 2,200 Descending FlightAware UK
Tue 01:51:12 AM 53.6000 -6.8090 98° East 560 644 36,600 -1,400 Climbing FlightAware ADS-B
Tue 01:51:30 AM 53.5922 -6.7145 98° East 470 541 34,500 -5,000 Descending FlightAware UK
Tue 01:51:48 AM 53.5854 -6.6356 98° East 478 550 33,600 1,636 Descending FlightAware UK
Tue 01:51:52 AM 53.5850 -6.6350 98° East 574 661 35,100 -3,000 Climbing FlightAware ADS-B
Tue 01:52:12 AM 53.5760 -6.5295 98° East 480 552 32,400 -5,684 Descending FlightAware UK
Tue 01:52:30 AM 53.5690 -6.4503 98° East 480 552 31,500 960 Descending FlightAware UK
Tue 01:52:37 AM 53.5680 -6.4390 98° East 573 659 32,800 -3,250 Climbing FlightAware ADS-B
Tue 01:52:54 AM 53.5594 -6.3448 98° East 484 557 30,200 -5,829 Descending FlightAware UK
Tue 01:53:12 AM 53.5522 -6.2656 99° East 484 557 29,400 1,826 Descending FlightAware UK
Tue 01:53:17 AM 53.5520 -6.2600 99° East 571 657 30,900 -2,000 Climbing FlightAware ADS-B
Tue 01:53:36 AM 53.5426 -6.1606 99° East 474 545 28,600 -4,865 Descending FlightAware UK
Tue 01:53:54 AM 53.5354 -6.0834 99° East 474 545 27,900 2,571 Descending FlightAware UK
Tue 01:53:57 AM 53.5360 -6.0880 99° East 557 641 29,500 -2,000 Climbing FlightAware ADS-B
Tue 01:54:12 AM 53.5284 -6.0071 99° East 468 539 27,300 -5,091 Descending FlightAware UK
Tue 01:54:30 AM 53.5213 -5.9315 99° East 466 536 26,700 1,400 Descending FlightAware UK
Tue 01:54:42 AM 53.5180 -5.9010 99° East 545 627 28,000 -1,800 Climbing FlightAware ADS-B
Tue 01:55:00 AM 53.5096 -5.8068 99° East 464 534 25,800 -4,000 Descending FlightAware UK
Tue 01:55:18 AM 53.5025 -5.7333 99° East 458 527 25,600 3,545 Descending FlightAware UK
Tue 01:55:22 AM 53.5030 -5.7360 99° East 531 611 27,100 -250 Climbing FlightAware ADS-B
Tue 01:55:42 AM 53.4932 -5.6359 99° East 458 527 25,500 -2,526 Descending FlightAware UK
Tue 01:56:00 AM 53.4861 -5.5624 99° East 460 529 25,500 4,500 Level FlightAware UK
Tue 01:56:02 AM 53.4870 -5.5700 99° East 535 616 27,000  Climbing FlightAware ADS-B
Tue 01:56:18 AM 53.4802 -5.4884 99° East 462 532 25,500 -2,647 Descending FlightAware UK
Tue 01:56:36 AM 53.4770 -5.4140 94° East 462 532 25,500 3,103 Level FlightAware UK
Tue 01:56:47 AM 53.4770 -5.3810 94° East 535 616 27,000  Climbing FlightAware ADS-B
Tue 01:57:12 AM 53.4736 -5.2647 94° East 462 532 25,500  Descending FlightAware UK
Tue 01:57:27 AM 53.4720 -5.2200 94° East 536 617 27,000  Climbing FlightAware ADS-B
Tue 01:57:48 AM 53.4690 -5.1154 94° East 462 532 25,500 -2,769 Descending FlightAware UK
Tue 01:58:06 AM 53.4667 -5.0403 93° East 462 532 25,200 3,250 Descending FlightAware UK
Tue 01:58:12 AM 53.4670 -5.0420 93° East 539 620 26,800 -1,000 Climbing FlightAware ADS-B
Tue 01:58:30 AM 53.4634 -4.9404 93° East 458 527 24,800 -3,833 Descending FlightAware UK
Tue 01:58:48 AM 53.4610 -4.8648 93° East 456 525 24,500 3,545 Descending FlightAware UK
Tue 01:58:52 AM 53.4610 -4.8810 93° East 535 616 26,100 -1,000 Climbing FlightAware ADS-B
Tue 01:59:12 AM 53.4577 -4.7656 93° East 454 522 24,100 -933 Descending FlightAware UK
Tue 01:59:37 AM 53.4550 -4.6800 93° East 528 608 25,400 -571 Climbing FlightAware ADS-B
Tue 01:59:54 AM 53.4517 -4.5949 93° East 450 518 23,700 -3,257 Descending FlightAware UK
Tue 02:00:12 AM 53.4487 -4.5217 94° East 450 518 23,500 3,130 Descending FlightAware UK
Tue 02:00:17 AM 53.4480 -4.5170 94° East 524 603 24,900 -2,000 Climbing FlightAware ADS-B
Tue 02:00:36 AM 53.4407 -4.4259 94° East 450 518 22,700 -1,950 Descending FlightAware UK
Tue 02:00:57 AM 53.4360 -4.3570 94° East 511 588 23,600 -2,108 Climbing FlightAware ADS-B
Tue 02:01:13 AM 53.4303 -4.2834 94° East 442 509 21,400 -4,941 Descending FlightAware UK
Tue 02:01:31 AM 53.4256 -4.2141 96° East 440 506 20,800 1,448 Descending FlightAware UK
Tue 02:01:42 AM 53.4240 -4.1910 96° East 498 573 22,100 -2,167 Climbing FlightAware ADS-B
Tue 02:02:07 AM 53.4163 -4.0775 96° East 428 493 19,500 -2,250 Descending FlightAware UK
Tue 02:02:22 AM 53.4140 -4.0380 96° East 487 560 20,600 -2,400 Climbing FlightAware ADS-B
Tue 02:02:37 AM 53.4091 -3.9656 96° East 424 488 18,300 -5,273 Descending FlightAware UK
Tue 02:02:55 AM 53.4051 -3.8992 96° East 418 481 17,700 2,160 Descending FlightAware UK
Tue 02:03:02 AM 53.4050 -3.8930 96° East 475 547 19,200 -2,000 Climbing FlightAware ADS-B
Tue 02:03:25 AM 53.3979 -3.7900 96° East 410 472 16,700 -4,390 Descending FlightAware UK
Tue 02:03:43 AM 53.3934 -3.7258 97° East 406 467 16,200 2,727 Descending FlightAware UK
Tue 02:03:47 AM 53.3940 -3.7300 97° East 464 534 17,700 -2,000 Climbing FlightAware ADS-B
Tue 02:04:07 AM 53.3874 -3.6408 97° East 400 460 15,400 -4,579 Descending FlightAware UK
Tue 02:04:25 AM 53.3826 -3.5780 97° East 398 458 14,800 2,700 Descending FlightAware UK
Tue 02:04:27 AM 53.3830 -3.5840 97° East 454 522 16,300 -2,333 Climbing FlightAware ADS-B
Tue 02:04:43 AM 53.3805 -3.5158 97° East 398 458 14,100 -4,950 Descending FlightAware UK
Tue 02:05:07 AM 53.3902 -3.4348 79° East 400 460 13,000 -2,286 Descending FlightAware UK
Tue 02:05:25 AM 53.4031 -3.3769 69° East 396 456 12,500 -2,333 Descending FlightAware UK
Tue 02:05:43 AM 53.4150 -3.3185 71° East 390 449 11,600 -3,333 Descending FlightAware UK
Tue 02:06:01 AM 53.4261 -3.2618 72° East 382 440 10,500 -3,833 Descending FlightAware UK
Tue 02:06:19 AM 53.4369 -3.2072 72° East 370 426 9,300 -167 Descending FlightAware UK
Tue 02:06:37 AM 53.4460 -3.1630 72° East 389 448 10,400 -1,333 Climbing FlightAware ADS-B
Tue 02:06:55 AM 53.4574 -3.1064 72° East 322 371 8,500 -1,200 Descending FlightAware UK
Tue 02:07:02 AM 53.4590 -3.0990 72° East 351 404 9,900 -1,400 Climbing FlightAware ADS-B
Tue 02:07:25 AM 53.4725 -3.0325 72° East 290 334 7,800 -1,440 Descending FlightAware UK
Tue 02:07:27 AM 53.4720 -3.0370 72° East 324 373 9,300 750 Climbing FlightAware ADS-B
Tue 02:07:57 AM 53.4870 -2.9650 71° East 310 357 8,200 -4,565 Descending FlightAware ADS-B
Tue 02:08:13 AM 53.4953 -2.9212 71° East 276 318 5,800 -2,600 Descending FlightAware UK
Tue 02:08:27 AM 53.5010 -2.8960 71° East 312 359 6,900 -2,000 Climbing FlightAware ADS-B
Tue 02:08:43 AM 53.5094 -2.8526 71° East 274 315 4,800 -1,400 Descending FlightAware UK
Tue 02:08:57 AM 53.5140 -2.8310 71° East 309 356 6,200 -800 Climbing FlightAware ADS-B
Tue 02:09:13 AM 53.5231 -2.7848 71° East 276 318 4,400 -480 Descending FlightAware UK
Tue 02:09:22 AM 53.5250 -2.7780 71° East 309 356 6,000 200 Climbing FlightAware ADS-B
Tue 02:09:43 AM 53.5367 -2.7166 71° East 272 313 4,500  Descending FlightAware UK
Tue 02:09:52 AM 53.5380 -2.7100 71° East 309 356 6,000  Climbing FlightAware ADS-B
Tue 02:10:13 AM 53.5458 -2.6459 71° East 276 318 4,500  Descending FlightAware UK
Tue 02:10:17 AM 53.5460 -2.6470 71° East 318 366 6,000  Climbing FlightAware ADS-B
Tue 02:10:37 AM 53.5507 -2.5877 71° East 270 311 4,500  Descending FlightAware UK
Tue 02:10:47 AM 53.5520 -2.5740 71° East 312 359 6,000 2,250 Climbing FlightAware ADS-B
Tue 02:11:17 AM 53.5580 -2.5000 82° East 317 365 6,000  Level FlightAware ADS-B
Tue 02:11:42 AM 53.5620 -2.4400 84° East 314 361 6,000  Level FlightAware ADS-B
Tue 02:12:12 AM 53.5610 -2.3760 91° East 295 339 6,000 -218 Level FlightAware ADS-B
Tue 02:12:37 AM 53.5600 -2.3230 92° East 276 318 5,800 -2,694 Descending FlightAware ADS-B
Tue 02:13:01 AM 53.5594 -2.2563 92° East 234 269 3,800 -1,000 Descending FlightAware UK
Tue 02:13:07 AM 53.5600 -2.2580 92° East 269 310 5,300 -960 Climbing FlightAware ADS-B
Tue 02:13:26 AM 53.5598 -2.2061 92° East 232 267 3,400 -1,000 Descending FlightAware UK
Tue 02:13:37 AM 53.5580 -2.1960 92° East 260 299 4,800 3,714 Climbing FlightAware ADS-B
Tue 02:13:47 AM 53.5520 -2.1770 118° Southeast 255 293 4,700 -720 Descending FlightAware ADS-B
Tue 02:14:02 AM 53.5440 -2.1550 121° Southeast 246 283 4,500 -3,455 Descending FlightAware ADS-B
Tue 02:14:20 AM 53.5276 -2.1162 121° Southeast 208 239 2,800 -240 Descending FlightAware UK
Tue 02:14:27 AM 53.5280 -2.1190 121° Southeast 233 268 4,400 3,111 Climbing FlightAware ADS-B
Tue 02:14:47 AM 53.5080 -2.0980 148° Southeast 204 235 4,200 -2,780 Descending FlightAware ADS-B
Tue 02:15:08 AM 53.4865 -2.0779 148° Southeast 186 214 2,500 -480 Descending FlightAware UK
Tue 02:15:12 AM 53.4880 -2.0790 148° Southeast 204 235 4,000 3,000 Climbing FlightAware ADS-B
Tue 02:15:32 AM 53.4700 -2.0660 157° South 191 220 3,700 -1,200 Descending FlightAware ADS-B
Tue 02:15:57 AM 53.4500 -2.0770 198° South 173 199 3,100 -1,371 Descending FlightAware ADS-B
Tue 02:16:07 AM 53.4440 -2.0880 228° Southwest 169 194 2,900 -3,771 Descending FlightAware ADS-B
Tue 02:16:32 AM 53.4309 -2.1147 228° Southwest 178 205 900 -1,000 Descending FlightAware UK
Tue 02:16:37 AM 53.4320 -2.1140 228° Southwest 161 185 2,400 2,400 Climbing FlightAware ADS-B
Tue 02:17:02 AM 53.4190 -2.1390 229° Southwest 145 167 2,100 -800 Descending FlightAware ADS-B
Tue 02:17:22 AM 53.4110 -2.1560 232° Southwest 136 157 1,800 -800 Descending FlightAware ADS-B
Tue 02:17:47 AM 53.4020 -2.1750 232° Southwest 133 153 1,500 -720 Descending FlightAware ADS-B
Tue 02:18:12 AM 53.3920 -2.1960 231° Southwest 132 152 1,200 -750 Descending FlightAware ADS-B
Tue 02:18:27 AM 53.3860 -2.2090 232° Southwest 132 152 1,000 -800 Descending FlightAware ADS-B
Tue 02:18:57 AM 53.3750 -2.2320 231° Southwest 131 151 600 -800 Descending FlightAware ADS-B
Tue 02:19:27 AM 53.3630 -2.2560 230° Southwest 132 152 200 -800 Descending FlightAware ADS-B

Login

Don't have an account? Register now (free) for customized features, flight alerts, and more!